UAL25 KRNO-KSLC
Flight info
| Callsign | UAL25 |
|---|---|
| Flight time | N/A |
| Altitude | 39000 |
| Route | BLKJK LLC SLOWN FLECC YUTES2 |
| Aircraft | A320/M-SDE3FGHIRWY/LB1 |
Departure
| Time | 2026-05-04 07:52 |
|---|---|
| Airport | Reno Tahoe International Airport (KRNO) |
Arrival
| Time | N/A |
|---|---|
| Airport | Salt Lake City International Airport (KSLC) |
| Time | Latitude | Longitude | Altitude | Speed | Heading |
|---|---|---|---|---|---|
| 2026-05-04 07:29 | 39.50532 | -119.77317 | 4499 ft | 0 kts | 184° |
| 2026-05-04 07:41 | 39.50533 | -119.77317 | 4495 ft | 2 kts | 184° |
| 2026-05-04 07:41 | 39.50556 | -119.77315 | 4499 ft | 4 kts | 178° |
| 2026-05-04 07:41 | 39.50581 | -119.77322 | 4497 ft | 4 kts | 137° |
| 2026-05-04 07:41 | 39.50590 | -119.77342 | 4498 ft | 0 kts | 90° |
| 2026-05-04 07:44 | 39.50590 | -119.77338 | 4498 ft | 1 kts | 90° |
| 2026-05-04 07:45 | 39.50590 | -119.77324 | 4495 ft | 2 kts | 90° |
| 2026-05-04 07:45 | 39.50590 | -119.77301 | 4495 ft | 3 kts | 90° |
| 2026-05-04 07:45 | 39.50590 | -119.77251 | 4495 ft | 9 kts | 90° |
| 2026-05-04 07:45 | 39.50589 | -119.77146 | 4491 ft | 15 kts | 90° |
| 2026-05-04 07:46 | 39.50528 | -119.77073 | 4500 ft | 14 kts | 170° |
| 2026-05-04 07:46 | 39.50429 | -119.77066 | 4496 ft | 15 kts | 180° |
| 2026-05-04 07:46 | 39.50318 | -119.77067 | 4497 ft | 17 kts | 180° |
| 2026-05-04 07:46 | 39.50198 | -119.77069 | 4494 ft | 18 kts | 180° |
| 2026-05-04 07:47 | 39.50069 | -119.77069 | 4496 ft | 19 kts | 180° |
| 2026-05-04 07:47 | 39.49932 | -119.77069 | 4491 ft | 20 kts | 180° |
| 2026-05-04 07:47 | 39.49787 | -119.77069 | 4495 ft | 21 kts | 180° |
| 2026-05-04 07:49 | 39.48610 | -119.77073 | 4495 ft | 27 kts | 180° |
| 2026-05-04 07:49 | 39.48424 | -119.77073 | 4494 ft | 23 kts | 179° |
| 2026-05-04 07:49 | 39.48378 | -119.77035 | 4495 ft | 0 kts | 93° |
| 2026-05-04 07:50 | 39.48377 | -119.77007 | 4494 ft | 6 kts | 93° |
| 2026-05-04 07:50 | 39.48398 | -119.76942 | 4495 ft | 10 kts | 37° |
| 2026-05-04 07:50 | 39.48480 | -119.76928 | 4495 ft | 14 kts | 1° |
| 2026-05-04 07:51 | 39.48734 | -119.76933 | 4493 ft | 72 kts | 359° |
| 2026-05-04 07:51 | 39.49440 | -119.76930 | 4496 ft | 131 kts | 0° |
| 2026-05-04 07:51 | 39.50532 | -119.76921 | 4513 ft | 176 kts | 359° |
| 2026-05-04 07:51 | 39.51789 | -119.76923 | 4967 ft | 184 kts | 358° |
| 2026-05-04 07:52 | 39.53080 | -119.76960 | 5431 ft | 194 kts | 355° |
| 2026-05-04 07:52 | 39.54471 | -119.77102 | 5818 ft | 207 kts | 352° |
| 2026-05-04 07:52 | 39.55976 | -119.77111 | 6144 ft | 230 kts | 11° |
| 2026-05-04 07:52 | 39.57467 | -119.76136 | 6472 ft | 256 kts | 43° |
| 2026-05-04 07:53 | 39.58375 | -119.74063 | 6832 ft | 278 kts | 79° |
| 2026-05-04 07:54 | 39.54836 | -119.56020 | 11358 ft | 330 kts | 105° |
| 2026-05-04 07:55 | 39.54217 | -119.53141 | 12050 ft | 334 kts | 105° |
| 2026-05-04 07:55 | 39.53607 | -119.50264 | 12778 ft | 336 kts | 105° |
| 2026-05-04 07:55 | 39.52989 | -119.47343 | 13511 ft | 338 kts | 105° |
| 2026-05-04 07:55 | 39.52363 | -119.44389 | 14150 ft | 341 kts | 105° |
| 2026-05-04 07:56 | 39.51732 | -119.41417 | 14767 ft | 343 kts | 105° |
| 2026-05-04 07:56 | 39.51225 | -119.38391 | 15367 ft | 346 kts | 95° |
| 2026-05-04 07:56 | 39.51294 | -119.35276 | 15958 ft | 349 kts | 81° |
| 2026-05-04 07:56 | 39.51992 | -119.32264 | 16574 ft | 353 kts | 67° |
| 2026-05-04 07:57 | 39.53290 | -119.29543 | 17184 ft | 359 kts | 52° |
| 2026-05-04 07:57 | 39.55077 | -119.27256 | 17812 ft | 363 kts | 45° |
| 2026-05-04 07:57 | 39.56950 | -119.25038 | 18411 ft | 366 kts | 45° |
| 2026-05-04 07:57 | 39.58831 | -119.22800 | 18973 ft | 368 kts | 45° |
| 2026-05-04 07:58 | 39.60722 | -119.20536 | 19544 ft | 371 kts | 46° |
| 2026-05-04 07:58 | 39.62618 | -119.18254 | 20111 ft | 373 kts | 46° |
| 2026-05-04 07:58 | 39.64505 | -119.15984 | 20664 ft | 376 kts | 45° |
| 2026-05-04 07:58 | 39.66431 | -119.13668 | 21206 ft | 378 kts | 45° |
| 2026-05-04 07:59 | 39.68371 | -119.11337 | 21747 ft | 381 kts | 45° |
| 2026-05-04 07:59 | 39.70326 | -119.08986 | 22272 ft | 384 kts | 45° |
| 2026-05-04 07:59 | 39.72290 | -119.06622 | 22790 ft | 386 kts | 46° |
| 2026-05-04 07:59 | 39.74266 | -119.04238 | 23305 ft | 389 kts | 46° |
| 2026-05-04 08:00 | 39.76258 | -119.01837 | 23742 ft | 392 kts | 45° |
| 2026-05-04 08:00 | 39.78263 | -118.99422 | 24162 ft | 394 kts | 45° |
| 2026-05-04 08:00 | 39.80276 | -118.96994 | 24573 ft | 396 kts | 45° |
| 2026-05-04 08:02 | 39.94424 | -118.79850 | 27307 ft | 410 kts | 45° |
| 2026-05-04 08:02 | 39.96499 | -118.77329 | 27692 ft | 412 kts | 45° |
| 2026-05-04 08:02 | 39.98603 | -118.74770 | 28073 ft | 414 kts | 45° |
| 2026-05-04 08:03 | 40.00706 | -118.72208 | 28455 ft | 416 kts | 45° |
| 2026-05-04 08:03 | 40.02841 | -118.69607 | 28819 ft | 418 kts | 45° |
| 2026-05-04 08:03 | 40.04971 | -118.67006 | 29189 ft | 420 kts | 45° |
| 2026-05-04 08:03 | 40.07107 | -118.64396 | 29552 ft | 422 kts | 45° |
| 2026-05-04 08:04 | 40.09245 | -118.61738 | 29887 ft | 423 kts | 49° |
| 2026-05-04 08:04 | 40.11104 | -118.58805 | 30189 ft | 423 kts | 57° |
| 2026-05-04 08:04 | 40.12621 | -118.55507 | 30477 ft | 423 kts | 65° |
| 2026-05-04 08:04 | 40.13740 | -118.51968 | 30855 ft | 421 kts | 73° |
| 2026-05-04 08:05 | 40.14543 | -118.48301 | 31234 ft | 421 kts | 75° |
| 2026-05-04 08:05 | 40.15326 | -118.44605 | 31587 ft | 421 kts | 75° |
| 2026-05-04 08:05 | 40.16110 | -118.40919 | 31947 ft | 421 kts | 75° |
| 2026-05-04 08:05 | 40.16896 | -118.37225 | 32308 ft | 421 kts | 75° |
| 2026-05-04 08:06 | 40.17679 | -118.33537 | 32653 ft | 422 kts | 75° |
| 2026-05-04 08:06 | 40.18451 | -118.29881 | 33011 ft | 422 kts | 75° |
| 2026-05-04 08:06 | 40.19230 | -118.26180 | 33376 ft | 422 kts | 75° |
| 2026-05-04 08:06 | 40.20008 | -118.22477 | 33741 ft | 423 kts | 75° |
| 2026-05-04 08:08 | 40.25493 | -117.96151 | 35379 ft | 435 kts | 76° |
| 2026-05-04 08:08 | 40.26290 | -117.92310 | 35582 ft | 437 kts | 76° |
| 2026-05-04 08:10 | 40.32707 | -117.61092 | 37116 ft | 451 kts | 76° |
| 2026-05-04 08:11 | 40.33522 | -117.57097 | 37292 ft | 453 kts | 76° |
| 2026-05-04 08:11 | 40.35148 | -117.49100 | 37651 ft | 456 kts | 76° |
| 2026-05-04 08:11 | 40.35960 | -117.45074 | 37811 ft | 457 kts | 77° |
| 2026-05-04 08:12 | 40.36773 | -117.41039 | 37970 ft | 459 kts | 77° |
| 2026-05-04 08:12 | 40.37590 | -117.36982 | 38128 ft | 460 kts | 77° |
| 2026-05-04 08:12 | 40.38408 | -117.32922 | 38296 ft | 462 kts | 77° |
| 2026-05-04 08:12 | 40.39219 | -117.28893 | 38441 ft | 463 kts | 77° |
| 2026-05-04 08:13 | 40.40041 | -117.24804 | 38580 ft | 464 kts | 77° |
| 2026-05-04 08:13 | 40.40864 | -117.20703 | 38750 ft | 464 kts | 77° |
| 2026-05-04 08:13 | 40.42513 | -117.12451 | 38879 ft | 470 kts | 77° |
| 2026-05-04 08:14 | 40.44164 | -117.04124 | 38898 ft | 473 kts | 77° |
| 2026-05-04 08:16 | 40.50742 | -116.70589 | 38926 ft | 475 kts | 77° |
| 2026-05-04 08:16 | 40.52380 | -116.62173 | 38908 ft | 476 kts | 77° |
| 2026-05-04 08:17 | 40.54023 | -116.53744 | 38885 ft | 476 kts | 77° |
| 2026-05-04 08:17 | 40.55656 | -116.45305 | 38865 ft | 477 kts | 77° |
| 2026-05-04 08:19 | 40.59309 | -116.12316 | 38862 ft | 477 kts | 84° |
| 2026-05-04 08:20 | 40.60117 | -116.03662 | 38884 ft | 477 kts | 85° |
| 2026-05-04 08:20 | 40.60905 | -115.95033 | 38903 ft | 477 kts | 85° |
| 2026-05-04 08:21 | 40.61713 | -115.86351 | 38917 ft | 478 kts | 85° |
| 2026-05-04 08:21 | 40.62511 | -115.77648 | 38922 ft | 479 kts | 85° |
| 2026-05-04 08:22 | 40.63298 | -115.68947 | 38919 ft | 479 kts | 85° |
| 2026-05-04 08:24 | 40.66377 | -115.34026 | 38847 ft | 480 kts | 85° |
| 2026-05-04 08:24 | 40.67138 | -115.25287 | 38845 ft | 480 kts | 85° |
| 2026-05-04 08:25 | 40.67887 | -115.16585 | 38850 ft | 481 kts | 85° |
| 2026-05-04 08:25 | 40.68633 | -115.07815 | 38849 ft | 482 kts | 85° |
| 2026-05-04 08:27 | 40.70718 | -114.72623 | 38844 ft | 481 kts | 91° |
| 2026-05-04 08:28 | 40.70831 | -114.63806 | 38843 ft | 482 kts | 90° |
| 2026-05-04 08:28 | 40.70917 | -114.59387 | 38631 ft | 482 kts | 90° |
| 2026-05-04 08:28 | 40.71019 | -114.54980 | 38387 ft | 481 kts | 90° |
| 2026-05-04 08:29 | 40.71132 | -114.50570 | 38108 ft | 480 kts | 90° |
| 2026-05-04 08:29 | 40.71246 | -114.46181 | 37854 ft | 479 kts | 90° |
| 2026-05-04 08:31 | 40.71991 | -114.11177 | 33327 ft | 463 kts | 89° |
| 2026-05-04 08:33 | 40.72489 | -113.83567 | 29145 ft | 384 kts | 89° |
| 2026-05-04 08:33 | 40.72548 | -113.80095 | 28700 ft | 373 kts | 90° |
| 2026-05-04 08:35 | 40.72601 | -113.56346 | 25755 ft | 366 kts | 91° |
| 2026-05-04 08:35 | 40.72591 | -113.52998 | 25350 ft | 364 kts | 91° |
| 2026-05-04 08:35 | 40.72581 | -113.49660 | 24956 ft | 363 kts | 91° |
| 2026-05-04 08:35 | 40.72573 | -113.46339 | 24555 ft | 361 kts | 91° |
| 2026-05-04 08:37 | 40.72514 | -113.26630 | 22007 ft | 353 kts | 91° |
| 2026-05-04 08:37 | 40.72498 | -113.23446 | 21576 ft | 351 kts | 91° |
| 2026-05-04 08:37 | 40.72481 | -113.20235 | 21142 ft | 350 kts | 91° |
| 2026-05-04 08:38 | 40.72464 | -113.17027 | 20705 ft | 349 kts | 91° |
| 2026-05-04 08:38 | 40.72447 | -113.13824 | 20260 ft | 349 kts | 91° |
| 2026-05-04 08:38 | 40.72429 | -113.10626 | 19810 ft | 348 kts | 91° |
| 2026-05-04 08:40 | 40.72286 | -112.88372 | 16908 ft | 337 kts | 90° |
| 2026-05-04 08:40 | 40.72264 | -112.85322 | 16705 ft | 329 kts | 90° |
| 2026-05-04 08:40 | 40.72238 | -112.82317 | 16604 ft | 327 kts | 91° |
| 2026-05-04 08:41 | 40.72210 | -112.79317 | 16427 ft | 327 kts | 91° |
| 2026-05-04 08:41 | 40.72180 | -112.76322 | 16231 ft | 326 kts | 91° |
| 2026-05-04 08:41 | 40.72152 | -112.73338 | 16031 ft | 326 kts | 91° |
| 2026-05-04 08:41 | 40.72123 | -112.70356 | 15831 ft | 325 kts | 91° |
| 2026-05-04 08:42 | 40.72091 | -112.67384 | 15630 ft | 324 kts | 91° |
| 2026-05-04 08:42 | 40.72059 | -112.64419 | 15434 ft | 323 kts | 91° |
| 2026-05-04 08:42 | 40.72028 | -112.61471 | 15234 ft | 322 kts | 91° |
| 2026-05-04 08:42 | 40.72002 | -112.58559 | 15036 ft | 321 kts | 91° |
| 2026-05-04 08:43 | 40.71980 | -112.55622 | 14842 ft | 320 kts | 91° |
| 2026-05-04 08:43 | 40.71925 | -112.52685 | 14643 ft | 320 kts | 96° |
| 2026-05-04 08:43 | 40.71635 | -112.49779 | 14448 ft | 319 kts | 98° |
| 2026-05-04 08:43 | 40.71339 | -112.46891 | 14253 ft | 318 kts | 98° |
| 2026-05-04 08:44 | 40.71044 | -112.44008 | 14053 ft | 317 kts | 98° |
| 2026-05-04 08:44 | 40.70749 | -112.41130 | 13859 ft | 316 kts | 98° |
| 2026-05-04 08:46 | 40.69505 | -112.21510 | 12433 ft | 308 kts | 84° |
| 2026-05-04 08:46 | 40.69743 | -112.18743 | 12226 ft | 307 kts | 81° |
| 2026-05-04 08:46 | 40.70339 | -112.16053 | 12058 ft | 306 kts | 65° |
| 2026-05-04 08:46 | 40.71436 | -112.13664 | 11851 ft | 305 kts | 51° |
| 2026-05-04 08:47 | 40.72953 | -112.11708 | 11715 ft | 305 kts | 37° |
| 2026-05-04 08:47 | 40.74781 | -112.10317 | 11572 ft | 304 kts | 21° |
| 2026-05-04 08:47 | 40.76821 | -112.09612 | 11428 ft | 303 kts | 6° |
| 2026-05-04 08:47 | 40.78919 | -112.09632 | 11282 ft | 302 kts | 354° |
| 2026-05-04 08:48 | 40.81017 | -112.09886 | 11135 ft | 302 kts | 354° |
| 2026-05-04 08:48 | 40.83112 | -112.10021 | 10997 ft | 302 kts | 6° |
| 2026-05-04 08:48 | 40.85140 | -112.09327 | 10801 ft | 303 kts | 21° |
| 2026-05-04 08:48 | 40.87042 | -112.08127 | 10219 ft | 302 kts | 29° |
| 2026-05-04 08:49 | 40.88847 | -112.06696 | 9464 ft | 305 kts | 32° |
| 2026-05-04 08:50 | 40.98883 | -111.98619 | 7420 ft | 234 kts | 31° |
| 2026-05-04 08:50 | 41.00261 | -111.97578 | 7336 ft | 225 kts | 31° |
| 2026-05-04 08:51 | 41.01484 | -111.96367 | 7282 ft | 214 kts | 53° |
| 2026-05-04 08:51 | 41.01997 | -111.95274 | 7298 ft | 209 kts | 70° |